Aérodrome :
LOGIN :

S'inscrire | Disclaimer

   EN    FR    IT 

 










Légende :    VFR   VFR Marginal   IFR   IFR Intensif   IFR Très Intensif
Visi : 
Plafond : 
>= 8 km
>= 3000ft
5 à 8 km
1000 à 3000 ft
1500m à 5 km
500 à 1000 ft
800 à 1500m
200 à 500 ft
< 800m
< 200 ft
Symboles :   Orages  Brouillard  Fortes neiges  Fortes précipitations  Vent > 20 kt
SIGMETs :   Divers  Orages  Givrage  Turbulence  Onde Orograph.  Cendres Volcan.






- Altitude de l'aérodrome : 242 ft
- Code IATA : DUB


EIDW - Dublin

DERNIER METAR :
  • 171930Z 27014KT CAVOK 03/01 Q1016 NOSIG

METARs EXPIRÉS :
  • 171900Z 26011KT 230V290 CAVOK 03/02 Q1016 NOSIG
  • 171830Z 27012KT 9999 FEW015 04/02 Q1015 NOSIG
  • 171800Z 27011KT 9999 FEW015 SCT200 04/02 Q1015 NOSIG
  • 171730Z 27010KT 9999 FEW015 BKN150 04/02 Q1014 NOSIG
  • 171700Z 28012KT 9999 FEW015 SCT110 04/02 Q1014 NOSIG

TAF TAF EIDW
Valide du 17 à 18h jusqu'au 18 à 18h UTC


171700Z 1718/1818 27013KT 9999 FEW020 SCT040
BECMG 1723/1801 26008KT



MET'MAP, la Météo Aéronautique d'un coup d'oeil ! - Copyright ORBIFLY Décembre 2007 - Disclaimer

ORBIFLY MET'MAP TEAM :

Programmation & Développement : Alexandra Zaïnal
Sur une idée originale de : Baudouin d'Aumeries
Assistance à la programmation : Marc-Olivier Méhu
Soutien technique & logistique : Manuel Goepfert

Contact : metmap@orbifly.com




SOURCES & CREDITS :

   NOAA